Evanston, Iowa
Current Conditions -  °F | °C
As of 1:55 AM on Wednesday 22 Oct 2014 (Local Time) from KEBS Reporting Station
Clear Clear  
Wind Chill: 38°   Ceiling: Unl
Heat Index: 45°   Visibility: 10mi
Dew Point: 39°   Wind: 14mph
Humidity: 81%   Direction: 130°SE
Pressure: 30.16"   Gusts: NA
Location:  42.4323°N, 94.0232°W
Report Text: KEBS 220655Z AUTO 13012KT 10SM CLR 07/04 A3016 RMK AO2
Loading
Personal Weather Stations






























Interactive Weather Map
Tropical Storm Tracking
New forecast layout! Learn more

10-Day Weather Forecast

Advertisements
Track Severe Weather on mobile